Time;durP1;ratioP1;P1;durP2;ratioP2;P2;SDS_P1;SDS_P2;PMS_P1;PMS_P2;Temp;Humidity;BMP_temperature;BMP_pressure;BME280_temperature;BME280_humidity;BME280_pressure;Samples;Min_cycle;Max_cycle;Signal;HPM_P1;HPM_P2
2021/12/04 00:01:28;;;;;;;17.17;8.77;;;0.80;99.90;;;;;;20711319;28;20048;-74
2021/12/04 00:11:28;;;;;;;19.77;8.25;;;0.80;99.90;;;;;;20710408;28;20636;-75
2021/12/04 00:21:29;;;;;;;20.27;9.52;;;0.70;99.90;;;;;;20707855;28;20041;-73
2021/12/04 00:31:31;;;;;;;19.95;9.85;;;0.70;99.90;;;;;;20709214;28;20510;-73
2021/12/04 00:51:54;;;;;;;22.00;11.40;;;0.60;99.90;;;;;;20700281;28;20487;-76
2021/12/04 01:01:55;;;;;;;23.83;10.65;;;0.60;99.90;;;;;;20707400;28;20058;-77
2021/12/04 01:11:56;;;;;;;22.98;11.27;;;0.60;99.90;;;;;;20708968;28;20064;-76
2021/12/04 01:21:57;;;;;;;23.23;10.95;;;0.60;99.90;;;;;;20795290;28;20048;-78
2021/12/04 01:31:58;;;;;;;24.30;11.57;;;0.70;99.90;;;;;;20803911;28;20069;-75
2021/12/04 01:41:59;;;;;;;25.70;11.05;;;0.70;99.90;;;;;;20794560;28;20053;-75
2021/12/04 01:52:00;;;;;;;23.50;10.45;;;0.70;99.90;;;;;;20771204;28;20037;-75
2021/12/04 02:02:03;;;;;;;25.52;10.98;;;0.80;99.90;;;;;;20793266;28;20052;-75
2021/12/04 02:12:06;;;;;;;20.50;10.20;;;0.80;99.90;;;;;;20768141;28;20408;-75
2021/12/04 02:22:07;;;;;;;17.35;8.77;;;0.90;99.90;;;;;;20806836;23;20038;-74
2021/12/04 02:32:08;;;;;;;17.08;8.77;;;0.90;99.90;;;;;;20761473;28;20026;-73
2021/12/04 02:42:20;;;;;;;18.42;8.63;;;1.00;99.90;;;;;;20751507;28;20117;-73
2021/12/04 02:52:23;;;;;;;20.88;10.40;;;1.00;99.90;;;;;;20746143;28;20041;-73
2021/12/04 03:02:24;;;;;;;17.75;8.50;;;0.90;99.90;;;;;;20749973;28;20036;-73
2021/12/04 03:12:25;;;;;;;15.00;7.38;;;1.00;99.90;;;;;;20748129;28;20025;-73
2021/12/04 03:22:27;;;;;;;14.88;8.30;;;1.10;99.90;;;;;;20746705;28;20037;-73
2021/12/04 03:42:36;;;;;;;14.43;7.88;;;1.10;99.90;;;;;;20713962;28;20117;-73
2021/12/04 03:52:37;;;;;;;12.93;6.10;;;1.10;99.90;;;;;;20584987;28;20049;-74
2021/12/04 04:02:38;;;;;;;17.45;7.20;;;1.20;99.90;;;;;;20585648;28;20027;-73
2021/12/04 04:12:38;;;;;;;11.95;6.03;;;1.20;99.90;;;;;;20584645;28;20027;-73
2021/12/04 04:22:39;;;;;;;10.35;5.97;;;1.30;99.90;;;;;;20640308;28;20084;-73
2021/12/04 04:32:44;;;;;;;9.40;5.03;;;1.40;99.90;;;;;;20663754;28;20109;-73
2021/12/04 05:13:44;;;;;;;14.55;7.03;;;1.60;99.90;;;;;;20662000;28;20042;-72
2021/12/04 05:23:53;;;;;;;15.20;6.45;;;1.60;99.90;;;;;;20661238;28;20604;-73
2021/12/04 05:33:54;;;;;;;10.13;5.72;;;1.70;99.90;;;;;;20660966;28;20041;-73
2021/12/04 05:43:55;;;;;;;6.93;4.13;;;1.70;99.90;;;;;;20660585;28;20397;-74
2021/12/04 05:54:45;;;;;;;6.18;3.55;;;1.80;99.90;;;;;;20660353;28;20495;-73
2021/12/04 06:04:22;;;;;;;5.78;3.10;;;1.90;99.90;;;;;;20659249;28;20050;-72
2021/12/04 06:14:22;;;;;;;4.35;2.60;;;1.90;99.90;;;;;;20672997;28;20030;-73
2021/12/04 06:24:23;;;;;;;7.72;3.67;;;1.90;99.90;;;;;;20672293;28;20069;-73
2021/12/04 06:34:24;;;;;;;8.77;4.72;;;1.90;99.90;;;;;;20672627;28;20112;-72
2021/12/04 06:44:26;;;;;;;11.00;5.18;;;1.90;99.90;;;;;;20671862;28;20026;-75
2021/12/04 06:54:32;;;;;;;26.92;12.23;;;1.90;99.90;;;;;;20671070;28;20633;-73
2021/12/04 07:04:37;;;;;;;51.50;18.63;;;1.90;99.90;;;;;;20670290;28;20393;-73
2021/12/04 07:14:39;;;;;;;3.40;1.70;;;2.00;99.90;;;;;;20668638;28;20381;-74
2021/12/04 07:24:40;;;;;;;1.45;1.10;;;2.00;99.90;;;;;;20668870;28;20038;-73
2021/12/04 07:34:40;;;;;;;45.50;15.65;;;2.10;99.90;;;;;;20667732;28;20034;-72
2021/12/04 07:44:41;;;;;;;27.70;12.25;;;2.20;99.90;;;;;;20666360;28;20026;-74
2021/12/04 07:54:42;;;;;;;55.75;23.33;;;2.20;99.90;;;;;;20666170;28;20062;-73
2021/12/04 08:04:43;;;;;;;3.10;2.10;;;2.20;99.90;;;;;;20664690;28;20062;-72
2021/12/04 08:24:57;;;;;;;61.53;13.65;;;2.60;99.90;;;;;;20587774;28;20058;-78
2021/12/04 08:34:58;;;;;;;19.92;8.60;;;2.70;99.90;;;;;;20571828;28;20705;-78
2021/12/04 08:44:59;;;;;;;23.58;9.85;;;2.80;99.90;;;;;;20556549;28;20029;-79
2021/12/04 08:55:00;;;;;;;15.68;7.28;;;3.00;99.90;;;;;;20555085;28;20038;-78
2021/12/04 09:05:02;;;;;;;32.80;14.80;;;3.20;99.90;;;;;;20589599;28;20027;-76
2021/12/04 09:15:07;;;;;;;46.78;19.25;;;3.40;99.90;;;;;;20584861;28;20524;-76
2021/12/04 09:25:12;;;;;;;144.30;47.15;;;3.50;99.90;;;;;;20580482;28;20397;-76
2021/12/04 09:59:19;;;;;;;142.27;48.20;;;3.60;99.90;;;;;;20596250;28;20057;-76
2021/12/04 10:16:53;;;;;;;62.03;32.92;;;4.20;99.90;;;;;;20593212;28;20066;-75
2021/12/04 10:36:48;;;;;;;12.75;8.18;;;4.40;99.90;;;;;;20594738;28;20093;-77
2021/12/04 10:47:00;;;;;;;19.35;7.47;;;4.50;99.90;;;;;;20605921;28;20461;-77
2021/12/04 10:57:48;;;;;;;198.73;17.00;;;4.60;99.90;;;;;;20590795;28;20073;-77
2021/12/04 11:18:42;;;;;;;37.97;17.60;;;4.50;99.90;;;;;;20623815;28;20038;-76
2021/12/04 11:49:16;;;;;;;35.20;18.73;;;4.70;99.90;;;;;;20580119;28;20198;-77
2021/12/04 11:59:26;;;;;;;63.00;22.42;;;5.00;99.90;;;;;;20532632;28;20413;-75
2021/12/04 12:09:28;;;;;;;25.45;13.77;;;5.20;99.90;;;;;;20549882;28;20039;-75
2021/12/04 12:19:47;;;;;;;42.58;16.75;;;5.20;99.90;;;;;;20584491;28;20045;-75
2021/12/04 12:40:12;;;;;;;104.43;29.05;;;5.10;99.90;;;;;;20548611;28;20038;-75
2021/12/04 12:50:25;;;;;;;802.10;274.15;;;5.70;99.90;;;;;;20583629;28;20034;-76
2021/12/04 13:21:10;;;;;;;93.43;42.40;;;6.00;99.90;;;;;;20568333;28;20034;-76
2021/12/04 13:31:11;;;;;;;7.32;4.20;;;5.80;99.90;;;;;;20566805;28;20034;-76
2021/12/04 13:41:12;;;;;;;;;;;6.10;99.90;;;;;;20581485;28;20031;-77
2021/12/04 13:51:13;;;;;;;74.57;20.83;;;6.00;99.90;;;;;;20565878;28;19914;-77
2021/12/04 14:01:15;;;;;;;19.80;9.90;;;6.20;99.90;;;;;;20563957;28;20034;-76
2021/12/04 14:11:16;;;;;;;;;;;6.30;99.90;;;;;;20565233;28;20031;-76
2021/12/04 14:21:16;;;;;;;10.10;5.28;;;7.20;99.90;;;;;;20630616;22;20383;-77
2021/12/04 14:31:22;;;;;;;11.37;6.13;;;6.70;99.90;;;;;;20603438;28;20378;-76
2021/12/04 14:41:23;;;;;;;6.80;3.30;;;6.70;99.90;;;;;;20589632;28;20045;-76
2021/12/04 14:51:26;;;;;;;4.60;2.70;;;7.00;99.90;;;;;;20588129;28;20034;-76
2021/12/04 15:01:33;;;;;;;6.70;2.17;;;7.10;99.90;;;;;;20589019;28;20097;-76
2021/12/04 15:11:36;;;;;;;1.45;0.68;;;7.10;99.90;;;;;;20586872;28;20038;-77
2021/12/04 15:21:41;;;;;;;0.57;0.57;;;7.10;99.90;;;;;;20592178;28;20125;-77
2021/12/04 15:31:42;;;;;;;2.55;1.90;;;7.30;99.90;;;;;;20589537;28;20042;-76
2021/12/04 16:01:52;;;;;;;1.33;0.80;;;7.50;99.90;;;;;;20585726;28;20073;-76
2021/12/04 16:12:03;;;;;;;2.08;0.52;;;7.70;99.90;;;;;;20592135;28;20062;-76
2021/12/04 16:22:09;;;;;;;1.80;1.10;;;7.40;99.90;;;;;;20588651;28;20057;-78
2021/12/04 16:32:29;;;;;;;0.75;0.60;;;7.20;99.90;;;;;;20590995;28;20030;-76
2021/12/04 16:42:30;;;;;;;1.35;0.50;;;6.90;99.90;;;;;;20588329;28;20046;-78
2021/12/04 17:02:51;;;;;;;0.52;0.50;;;6.60;99.90;;;;;;20583173;28;20051;-77
2021/12/04 17:12:51;;;;;;;2.40;0.73;;;6.60;99.90;;;;;;20582665;28;20407;-76
2021/12/04 17:22:55;;;;;;;2.55;0.80;;;6.50;99.90;;;;;;20580818;28;20050;-76
2021/12/04 17:32:56;;;;;;;4.80;0.60;;;6.60;99.90;;;;;;20579377;28;20105;-77
2021/12/04 17:42:57;;;;;;;1.52;0.75;;;6.50;99.90;;;;;;20578989;28;20042;-77
2021/12/04 17:52:59;;;;;;;0.83;0.80;;;6.40;99.90;;;;;;20579884;28;20035;-76
2021/12/04 18:03:03;;;;;;;1.70;0.90;;;6.40;99.90;;;;;;20590676;28;20843;-76
2021/12/04 18:13:09;;;;;;;1.27;0.80;;;6.40;99.90;;;;;;20599678;28;20035;-76
2021/12/04 18:23:12;;;;;;;1.15;1.02;;;6.40;99.90;;;;;;20604721;28;20032;-75
2021/12/04 18:33:13;;;;;;;5.78;3.33;;;6.40;99.90;;;;;;20600996;28;20034;-76
2021/12/04 18:43:24;;;;;;;3.80;2.63;;;6.20;99.90;;;;;;20601186;28;20053;-77
2021/12/04 18:53:25;;;;;;;1.07;0.97;;;6.20;99.90;;;;;;20601714;28;20035;-77
2021/12/04 19:03:26;;;;;;;0.97;0.60;;;6.40;99.90;;;;;;20600361;28;20376;-78
2021/12/04 19:13:28;;;;;;;0.30;0.30;;;5.70;99.90;;;;;;20600405;28;20293;-76
2021/12/04 19:23:31;;;;;;;0.52;0.40;;;5.20;99.90;;;;;;20599610;28;20034;-76
2021/12/04 19:54:18;;;;;;;1.17;1.05;;;3.80;99.90;;;;;;20604810;28;20038;-75
2021/12/04 20:04:43;;;;;;;3.42;1.63;;;3.50;99.90;;;;;;20597416;28;20638;-76
2021/12/04 20:14:44;;;;;;;1.25;0.75;;;3.00;99.90;;;;;;20594160;28;20041;-76
2021/12/04 20:24:55;;;;;;;1.65;1.25;;;2.90;99.90;;;;;;20593137;28;20546;-75
2021/12/04 22:59:47;;;;;;;4.75;1.00;;;3.40;99.90;;;;;;20599047;28;20496;-76
